Terminal Aerodrome Forecast
Issued by NWS

Home | Current Version | Previous Version | Graphics & Text | Print | Product List | Glossary On
Versions: 1 2 3 4 5 6 7 8 9 10 11 12 13 14 15
699
FTUS43 KIWX 272333
TAFSBN
TAF
KSBN 272333Z 2800/2824 25010KT P6SM SCT025 OVC035
      TEMPO 2801/2805 BKN025
     FM281000 18006KT P6SM SCT025 OVC040
     FM282000 14010KT P6SM OVC060=

USA.gov is the U.S. government's official web portal to all federal, state and local government web resources and services.